Página principal
METAR-TAF:

METAR-TAF

Aeroportos :

Aktau, Cazaquistão

latitude: 43-52-12N, longitude: 051-06E, altura: 22 m

Observação actual do tempo

O boletim foi feito há 28 minutos, às 22:00 UTC
Vento 10 kt de es-sudeste
Temperatura 2°C
Humidade 75%
Pressão 1038 hPa
Visibilidade 10 km ou mais
Encobertoa uma altura de 1800 ft

METAR: UATE 152200Z 12005MPS 9999 OVC018 02/M02 Q1038 R12/0///70 NOSIG RMK QFE777/1036

Hora: 03:28 (22:28 UTC)

Previsão

O boletim foi feito há 5 horas e 27 minutos, às 17:01 UTC
Previsão válida de 15 às 18 UTC a 16 às 18 UTC
Vento 16 kt de este
Visibilidade 10 km ou mais
Nuvens dispersasa uma altura de 1000 ft
Nuvens fragmentadasa uma altura de 2000 ft

TAF: UATE 151701Z 1518/1618 08008MPS 9999 SCT010 BKN020 TX08/1609Z TNM02/1602Z

Observações e previsões do tempo de mais de 4000 aeroportos (mensagens METAR e TAF).

As estações disponíveis são os pontos amarelos e vermelhos sobre o mapa.

Mova o rato sobre o mapa para ver o nome da estação.

Depois clique no ponto para visualizar as observações e previsões meteorológicas.

Para alterar o mapa : clique nos botões verdes com uma cruz preta para aumentar o zoom; no botão verde com uma pitada de zoom; ou nas setas verdes para mapas adjacentes.


METAR-TAF: